Structure, Texas
Current Conditions -  °F | °C
As of 3:35 AM on Wednesday 22 Oct 2014 (Local Time) from KEDC Reporting Station
Few Clouds Few Clouds  
Wind Chill: 64°   Ceiling: Unl
Heat Index: 64°   Visibility: 10mi
Dew Point: 55°   Wind: 0mph
Humidity: 73%   Direction: NA
Pressure: 30.06"   Gusts: NA
Location:  30.2988°N, 97.3874°W
Report Text: KEDC 220835Z AUTO 00000KT 10SM FEW043 18/13 A3006 RMK AO2
Loading
Personal Weather Stations






























Interactive Weather Map New forecast layout! Learn more

10-Day Weather Forecast

Advertisements
Track Severe Weather on mobile